Time;durP1;ratioP1;P1;durP2;ratioP2;P2;SDS_P1;SDS_P2;PMS_P1;PMS_P2;Temp;Humidity;BMP_temperature;BMP_pressure;BME280_temperature;BME280_humidity;BME280_pressure;Samples;Min_cycle;Max_cycle;Signal;HPM_P1;HPM_P2
2021/01/26 00:01:00;;;;;;;4.75;3.78;;;5.10;99.90;;;;;;5062623;28;20021;-75
2021/01/26 00:03:26;;;;;;;5.75;4.63;;;5.00;99.90;;;;;;5060223;28;20380;-75
2021/01/26 00:05:52;;;;;;;2.88;2.60;;;5.00;99.90;;;;;;5064069;28;20047;-75
2021/01/26 00:08:19;;;;;;;3.92;2.83;;;5.00;99.90;;;;;;5072499;28;20405;-76
2021/01/26 00:10:45;;;;;;;7.60;4.90;;;5.10;99.90;;;;;;5061438;28;20164;-75
2021/01/26 00:13:12;;;;;;;6.20;4.18;;;5.10;99.90;;;;;;5060141;28;20116;-76
2021/01/26 00:15:37;;;;;;;6.10;3.72;;;5.00;99.90;;;;;;5062155;28;20028;-76
2021/01/26 00:18:04;;;;;;;6.63;5.10;;;4.90;99.90;;;;;;5068975;28;20035;-76
2021/01/26 00:20:32;;;;;;;5.10;3.90;;;4.80;99.90;;;;;;5065294;28;20056;-76
2021/01/26 00:22:58;;;;;;;7.82;4.93;;;4.80;99.90;;;;;;5065480;28;20012;-76
2021/01/26 00:25:29;;;;;;;6.80;3.47;;;4.80;99.90;;;;;;5072003;28;20009;-75
2021/01/26 00:27:56;;;;;;;6.07;4.13;;;4.70;99.90;;;;;;5063404;28;20086;-76
2021/01/26 00:30:28;;;;;;;3.97;3.45;;;4.70;99.90;;;;;;5064560;28;20036;-76
2021/01/26 00:32:56;;;;;;;4.95;3.47;;;4.70;99.90;;;;;;5068201;28;20025;-77
2021/01/26 00:35:23;;;;;;;5.30;4.15;;;4.70;99.90;;;;;;5061685;28;20127;-76
2021/01/26 00:37:49;;;;;;;5.68;4.32;;;4.70;99.90;;;;;;5056019;28;20036;-76
2021/01/26 00:40:16;;;;;;;5.40;4.15;;;4.70;99.90;;;;;;5064634;28;20103;-76
2021/01/26 00:42:43;;;;;;;7.35;5.20;;;4.70;99.90;;;;;;5061615;28;20095;-76
2021/01/26 00:45:10;;;;;;;7.30;4.80;;;4.70;99.90;;;;;;5063272;28;20028;-76
2021/01/26 00:47:36;;;;;;;5.95;4.57;;;4.70;99.90;;;;;;5057600;28;20029;-77
2021/01/26 00:50:06;;;;;;;6.47;4.03;;;4.80;99.90;;;;;;5060903;28;20032;-76
2021/01/26 00:52:32;;;;;;;7.93;4.63;;;4.80;99.90;;;;;;5060012;28;20021;-76
2021/01/26 00:54:58;;;;;;;4.32;3.70;;;4.80;99.90;;;;;;5067480;28;20031;-76
2021/01/26 00:57:24;;;;;;;5.20;3.83;;;4.80;99.90;;;;;;5061731;28;20047;-76
2021/01/26 00:59:51;;;;;;;3.92;3.53;;;4.90;99.90;;;;;;5067230;28;20111;-77
2021/01/26 01:02:18;;;;;;;5.75;3.88;;;4.90;99.90;;;;;;5064998;28;20018;-77
2021/01/26 01:04:45;;;;;;;4.20;3.50;;;4.90;99.90;;;;;;5063618;28;20024;-76
2021/01/26 01:07:11;;;;;;;5.03;3.75;;;5.00;99.90;;;;;;5059937;28;20017;-76
2021/01/26 01:09:37;;;;;;;5.18;4.03;;;5.00;99.90;;;;;;5064314;28;20143;-76
2021/01/26 01:12:04;;;;;;;4.20;3.63;;;5.00;99.90;;;;;;5062833;28;20056;-76
2021/01/26 01:14:30;;;;;;;6.20;4.10;;;5.00;99.90;;;;;;5064704;28;20032;-77
2021/01/26 01:16:56;;;;;;;5.60;4.28;;;5.00;99.90;;;;;;5058900;28;20123;-76
2021/01/26 01:19:23;;;;;;;4.65;4.15;;;5.00;99.90;;;;;;5059065;28;20505;-76
2021/01/26 01:21:50;;;;;;;5.65;4.90;;;4.90;99.90;;;;;;5061652;28;20051;-76
2021/01/26 01:24:15;;;;;;;5.40;4.40;;;5.10;99.90;;;;;;5062820;28;20040;-76
2021/01/26 01:26:41;;;;;;;5.18;4.68;;;5.00;99.90;;;;;;5057945;28;20450;-76
2021/01/26 01:29:09;;;;;;;5.72;5.15;;;4.90;99.90;;;;;;5064825;28;20040;-76
2021/01/26 01:31:34;;;;;;;5.97;5.32;;;4.90;99.90;;;;;;5067613;28;20036;-75
2021/01/26 01:34:00;;;;;;;6.30;4.90;;;4.90;99.90;;;;;;5064868;28;20024;-76
2021/01/26 01:36:26;;;;;;;8.50;6.05;;;4.90;99.90;;;;;;5062465;28;20017;-76
2021/01/26 01:38:52;;;;;;;5.03;4.07;;;4.80;99.90;;;;;;5062052;28;20020;-76
2021/01/26 01:41:18;;;;;;;7.45;5.47;;;4.80;99.90;;;;;;5061007;28;20695;-75
2021/01/26 01:43:49;;;;;;;6.70;5.97;;;4.90;99.90;;;;;;5062231;28;20100;-79
2021/01/26 01:46:19;;;;;;;5.25;4.70;;;5.00;99.90;;;;;;5065342;28;20498;-75
2021/01/26 01:48:46;;;;;;;7.95;5.30;;;5.10;99.90;;;;;;5064902;28;20064;-79
2021/01/26 01:51:17;;;;;;;6.53;5.57;;;5.20;99.90;;;;;;5060263;28;20052;-75
2021/01/26 01:53:52;;;;;;;7.45;5.75;;;5.20;99.90;;;;;;5060958;28;20029;-75
2021/01/26 01:56:28;;;;;;;8.02;5.57;;;5.10;99.90;;;;;;5061611;28;20101;-75
2021/01/26 01:59:02;;;;;;;9.13;7.07;;;5.10;99.90;;;;;;5053204;28;20032;-75
2021/01/26 02:01:29;;;;;;;8.27;6.68;;;5.10;99.90;;;;;;5061683;28;20029;-75
2021/01/26 02:04:06;;;;;;;6.28;5.35;;;5.00;99.90;;;;;;5078299;28;20025;-75
2021/01/26 02:06:36;;;;;;;6.82;6.13;;;5.00;99.90;;;;;;5068303;28;20074;-75
2021/01/26 02:09:07;;;;;;;9.90;6.75;;;4.90;99.90;;;;;;5060607;28;20046;-75
2021/01/26 02:11:34;;;;;;;7.15;5.65;;;4.80;99.90;;;;;;5059690;28;20028;-75
2021/01/26 02:14:00;;;;;;;10.02;7.32;;;4.70;99.90;;;;;;5066690;28;20020;-76
2021/01/26 02:16:29;;;;;;;7.95;6.18;;;4.50;99.90;;;;;;5063851;28;20123;-75
2021/01/26 02:19:39;;;;;;;7.32;6.05;;;4.30;99.90;;;;;;5054032;28;20025;-76
2021/01/26 02:22:17;;;;;;;11.82;7.03;;;4.30;99.90;;;;;;5061687;28;20078;-79
2021/01/26 02:25:24;;;;;;;6.88;5.28;;;4.20;99.90;;;;;;5062232;28;20418;-76
2021/01/26 02:28:11;;;;;;;9.43;6.18;;;4.10;99.90;;;;;;5054205;28;20107;-76
2021/01/26 02:31:01;;;;;;;6.60;5.95;;;4.20;99.90;;;;;;5057975;28;20033;-76
2021/01/26 02:33:56;;;;;;;7.45;6.07;;;4.20;99.90;;;;;;5067116;28;20029;-75
2021/01/26 02:37:00;;;;;;;7.00;5.82;;;4.00;99.90;;;;;;5063953;28;20056;-75
2021/01/26 02:40:17;;;;;;;7.20;6.13;;;3.90;99.90;;;;;;5052560;28;20064;-75
2021/01/26 02:42:46;;;;;;;7.15;5.97;;;3.80;99.90;;;;;;5081945;28;20036;-76
2021/01/26 02:45:28;;;;;;;6.97;5.90;;;3.80;99.90;;;;;;5064010;28;20502;-76
2021/01/26 02:48:02;;;;;;;;;;;3.80;99.90;;;;;;5062724;28;20112;-77
2021/01/26 02:50:48;;;;;;;7.55;5.65;;;3.80;99.90;;;;;;5062505;28;19911;-75
2021/01/26 02:53:34;;;;;;;7.05;5.30;;;3.70;99.90;;;;;;5064468;28;20020;-76
2021/01/26 02:56:09;;;;;;;8.18;6.13;;;3.70;99.90;;;;;;5066667;28;20017;-75
2021/01/26 02:58:41;;;;;;;11.98;6.55;;;3.80;99.90;;;;;;5065543;28;20021;-75
2021/01/26 03:01:08;;;;;;;8.05;6.55;;;3.90;99.90;;;;;;5061322;28;20024;-75
2021/01/26 03:03:55;;;;;;;6.97;6.15;;;4.00;99.90;;;;;;5062735;28;20108;-77
2021/01/26 03:06:29;;;;;;;5.78;5.18;;;4.10;99.90;;;;;;5063255;28;20027;-75
2021/01/26 03:09:08;;;;;;;10.98;6.53;;;4.20;99.90;;;;;;5064884;28;20025;-75
2021/01/26 03:11:37;;;;;;;7.05;5.28;;;4.20;99.90;;;;;;5064598;28;20029;-75
2021/01/26 03:14:26;;;;;;;7.05;6.22;;;4.40;99.90;;;;;;5069357;28;20028;-75
2021/01/26 03:16:59;;;;;;;7.15;6.35;;;4.40;99.90;;;;;;5069449;28;20075;-76
2021/01/26 03:19:30;;;;;;;10.20;6.55;;;4.30;99.90;;;;;;5068049;28;20092;-75
2021/01/26 03:22:01;;;;;;;8.95;6.07;;;4.20;99.90;;;;;;5070545;28;20033;-76
2021/01/26 03:24:35;;;;;;;6.72;5.93;;;4.10;99.90;;;;;;5066944;28;20017;-75
2021/01/26 03:27:07;;;;;;;7.85;6.30;;;4.00;99.90;;;;;;5067519;28;20020;-76
2021/01/26 03:29:36;;;;;;;8.18;6.28;;;3.90;99.90;;;;;;5061927;28;20364;-76
2021/01/26 03:32:06;;;;;;;7.05;6.03;;;3.90;99.90;;;;;;5059308;28;20066;-75
2021/01/26 03:34:33;;;;;;;5.82;5.20;;;4.00;99.90;;;;;;5060844;28;20029;-75
2021/01/26 03:37:00;;;;;;;8.75;5.47;;;4.00;99.90;;;;;;5061674;28;20070;-75
2021/01/26 03:39:27;;;;;;;7.47;6.00;;;4.20;99.90;;;;;;5058329;28;20104;-75
2021/01/26 03:41:53;;;;;;;7.50;5.47;;;4.30;99.90;;;;;;5069678;28;20035;-75
2021/01/26 03:44:19;;;;;;;7.15;5.13;;;4.30;99.90;;;;;;5063453;28;20414;-75
2021/01/26 03:46:47;;;;;;;8.07;6.03;;;4.30;99.90;;;;;;5062915;28;20652;-77
2021/01/26 03:49:23;;;;;;;6.70;5.28;;;4.30;99.90;;;;;;5065018;28;20021;-76
2021/01/26 03:52:18;;;;;;;10.85;6.15;;;4.30;99.90;;;;;;5063800;28;20032;-78
2021/01/26 03:54:46;;;;;;;8.18;6.13;;;4.30;99.90;;;;;;5055892;28;20045;-76
2021/01/26 03:57:36;;;;;;;6.38;4.80;;;4.20;99.90;;;;;;5062707;28;20028;-76
2021/01/26 04:00:10;;;;;;;5.38;4.53;;;4.20;99.90;;;;;;5064559;28;20047;-76
2021/01/26 04:02:57;;;;;;;6.65;5.53;;;4.20;99.90;;;;;;5058166;28;20028;-75
2021/01/26 04:05:35;;;;;;;6.40;5.70;;;4.30;99.90;;;;;;5060018;28;20016;-74
2021/01/26 04:08:14;;;;;;;8.00;6.15;;;4.30;99.90;;;;;;5066884;28;20056;-74
2021/01/26 04:10:59;;;;;;;7.28;5.97;;;4.30;99.90;;;;;;5070456;28;20036;-74
2021/01/26 04:13:30;;;;;;;7.00;5.80;;;4.20;99.90;;;;;;5068996;28;20031;-74
2021/01/26 04:16:00;;;;;;;7.28;6.45;;;4.30;99.90;;;;;;5061262;28;20118;-74
2021/01/26 04:18:34;;;;;;;7.03;5.80;;;4.30;99.90;;;;;;5056091;28;20079;-74
2021/01/26 04:21:01;;;;;;;7.40;5.38;;;4.40;99.90;;;;;;5057756;28;20021;-75
2021/01/26 04:23:28;;;;;;;5.80;5.15;;;4.30;99.90;;;;;;5064110;28;20370;-74
2021/01/26 04:26:02;;;;;;;8.15;5.72;;;4.20;99.90;;;;;;5065459;28;20020;-74
2021/01/26 04:28:36;;;;;;;5.63;4.93;;;4.10;99.90;;;;;;5063640;28;20104;-74
2021/01/26 04:34:00;;;;;;;6.40;5.25;;;3.90;99.90;;;;;;5061821;28;20039;-75
2021/01/26 04:36:26;;;;;;;5.30;4.78;;;4.00;99.90;;;;;;5071002;28;20028;-75
2021/01/26 04:38:52;;;;;;;6.38;5.43;;;4.00;99.90;;;;;;5055052;28;20021;-75
2021/01/26 04:41:32;;;;;;;4.55;4.10;;;4.00;99.90;;;;;;5070224;28;20024;-75
2021/01/26 04:44:23;;;;;;;7.22;4.47;;;4.00;99.90;;;;;;5067201;28;20083;-75
2021/01/26 04:47:28;;;;;;;8.23;5.47;;;3.90;99.90;;;;;;5062454;28;20067;-75
2021/01/26 04:50:36;;;;;;;5.68;4.38;;;3.90;99.90;;;;;;5054036;28;20029;-77
2021/01/26 04:53:34;;;;;;;7.65;4.90;;;3.90;99.90;;;;;;5064686;28;20032;-76
2021/01/26 04:56:22;;;;;;;6.72;5.05;;;3.90;99.90;;;;;;5063404;28;20114;-76
2021/01/26 04:58:48;;;;;;;9.52;5.53;;;3.80;99.90;;;;;;5066260;28;20028;-75
2021/01/26 05:01:46;;;;;;;6.78;5.00;;;3.80;99.90;;;;;;5058994;28;20028;-78
2021/01/26 05:04:21;;;;;;;6.78;6.00;;;3.80;99.90;;;;;;5061051;28;20036;-76
2021/01/26 05:06:55;;;;;;;7.03;6.00;;;3.80;99.90;;;;;;5063203;28;20075;-75
2021/01/26 05:09:45;;;;;;;9.43;7.28;;;3.80;99.90;;;;;;5063448;28;20458;-76
2021/01/26 05:12:13;;;;;;;9.40;7.38;;;3.80;99.90;;;;;;5060940;28;20091;-75
2021/01/26 05:14:47;;;;;;;7.63;5.28;;;3.80;99.90;;;;;;5059488;28;20090;-76
2021/01/26 05:17:21;;;;;;;9.73;6.75;;;3.80;99.90;;;;;;5059840;28;20032;-76
2021/01/26 05:19:58;;;;;;;8.15;6.90;;;3.70;99.90;;;;;;5061022;28;20478;-75
2021/01/26 05:22:44;;;;;;;8.85;7.30;;;3.80;99.90;;;;;;5054481;28;20028;-76
2021/01/26 05:25:13;;;;;;;10.52;6.43;;;3.80;99.90;;;;;;5057406;28;20063;-76
2021/01/26 05:27:39;;;;;;;13.63;8.30;;;3.80;99.90;;;;;;5058758;28;20491;-75
2021/01/26 05:30:09;;;;;;;6.20;5.45;;;3.80;99.90;;;;;;5064209;28;20035;-75
2021/01/26 05:32:36;;;;;;;9.02;6.18;;;3.80;99.90;;;;;;5062266;28;20114;-75
2021/01/26 05:35:04;;;;;;;8.43;5.72;;;3.90;99.90;;;;;;5067175;28;20033;-76
2021/01/26 05:37:32;;;;;;;8.65;5.85;;;3.80;99.90;;;;;;5065136;28;20044;-75
2021/01/26 05:40:13;;;;;;;13.60;6.15;;;3.80;99.90;;;;;;5064061;28;20092;-76
2021/01/26 05:42:40;;;;;;;7.28;5.55;;;3.80;99.90;;;;;;5061799;28;20036;-75
2021/01/26 05:45:15;;;;;;;9.20;7.05;;;3.70;99.90;;;;;;5059291;28;20017;-76
2021/01/26 05:47:41;;;;;;;6.70;5.90;;;3.70;99.90;;;;;;5066651;28;20033;-74
2021/01/26 05:50:24;;;;;;;7.47;5.75;;;3.70;99.90;;;;;;5077489;28;20020;-74
2021/01/26 05:52:50;;;;;;;7.03;5.15;;;3.70;99.90;;;;;;5062217;28;20029;-73
2021/01/26 05:55:23;;;;;;;6.82;5.20;;;3.70;99.90;;;;;;5070260;28;20056;-73
2021/01/26 05:57:49;;;;;;;;;;;3.70;99.90;;;;;;5056091;28;20017;-73
2021/01/26 06:00:22;;;;;;;7.15;5.45;;;3.70;99.90;;;;;;5064663;28;20058;-74
2021/01/26 06:03:04;;;;;;;7.60;5.80;;;3.70;99.90;;;;;;5055457;28;20029;-73
2021/01/26 06:05:30;;;;;;;7.10;5.60;;;3.60;99.90;;;;;;5065347;28;20372;-73
2021/01/26 06:08:14;;;;;;;7.28;5.43;;;3.60;99.90;;;;;;5064110;28;20031;-73
2021/01/26 06:10:43;;;;;;;6.93;6.03;;;3.60;99.90;;;;;;5060923;28;20035;-73
2021/01/26 06:13:11;;;;;;;6.38;5.63;;;3.60;99.90;;;;;;5064999;28;20025;-73
2021/01/26 06:15:39;;;;;;;9.77;6.68;;;3.50;99.90;;;;;;5070397;28;20032;-73
2021/01/26 06:18:17;;;;;;;8.13;6.25;;;3.50;99.90;;;;;;5057556;28;20028;-73
2021/01/26 06:21:00;;;;;;;10.90;6.40;;;3.50;99.90;;;;;;5073119;28;20017;-73
2021/01/26 06:23:29;;;;;;;11.00;6.18;;;3.50;99.90;;;;;;5070929;28;20466;-73
2021/01/26 06:25:59;;;;;;;9.82;5.38;;;3.60;99.90;;;;;;5066543;28;20531;-72
2021/01/26 06:29:02;;;;;;;7.75;6.13;;;3.60;99.90;;;;;;5064948;28;20444;-73
2021/01/26 06:31:39;;;;;;;7.78;5.60;;;3.60;99.90;;;;;;5063114;28;20180;-75
2021/01/26 06:34:08;;;;;;;7.20;5.43;;;3.60;99.90;;;;;;5072690;28;20314;-75
2021/01/26 06:36:45;;;;;;;9.60;5.40;;;3.60;99.90;;;;;;5067084;28;20025;-75
2021/01/26 06:39:30;;;;;;;8.25;6.88;;;3.60;99.90;;;;;;5062169;28;20048;-75
2021/01/26 06:42:27;;;;;;;8.73;7.07;;;3.60;99.90;;;;;;5070284;28;20028;-75
2021/01/26 06:45:19;;;;;;;12.57;7.25;;;3.70;99.90;;;;;;5065571;28;20017;-75
2021/01/26 06:48:03;;;;;;;7.18;6.22;;;3.70;99.90;;;;;;5069168;28;20055;-75
2021/01/26 06:50:56;;;;;;;8.77;6.50;;;3.70;99.90;;;;;;5066244;28;20047;-77
2021/01/26 06:53:40;;;;;;;11.70;7.00;;;3.70;99.90;;;;;;5055581;28;20013;-74
2021/01/26 06:56:33;;;;;;;9.57;5.95;;;3.70;99.90;;;;;;5062995;28;20379;-75
2021/01/26 06:59:10;;;;;;;8.63;6.20;;;3.70;99.90;;;;;;5073013;28;20485;-75
2021/01/26 07:01:36;;;;;;;8.90;6.45;;;3.70;99.90;;;;;;5064102;28;20499;-76
2021/01/26 07:04:31;;;;;;;9.20;7.18;;;3.70;99.90;;;;;;5069936;28;20025;-75
2021/01/26 07:07:20;;;;;;;7.72;6.68;;;3.80;99.90;;;;;;5066750;28;20028;-74
2021/01/26 07:09:55;;;;;;;9.73;6.97;;;3.80;99.90;;;;;;5078122;28;20115;-74
2021/01/26 07:12:39;;;;;;;11.13;7.75;;;3.90;99.90;;;;;;5069429;28;20510;-75
2021/01/26 07:15:24;;;;;;;8.90;6.00;;;3.90;99.90;;;;;;5060392;28;20414;-75
2021/01/26 07:18:20;;;;;;;8.15;6.72;;;3.80;99.90;;;;;;5062942;28;20083;-68
2021/01/26 07:21:07;;;;;;;11.30;6.78;;;3.70;99.90;;;;;;5075140;28;20116;-68
2021/01/26 07:23:46;;;;;;;10.65;6.32;;;3.80;99.90;;;;;;5065182;28;20104;-74
2021/01/26 07:26:12;;;;;;;6.43;5.75;;;3.70;99.90;;;;;;5059293;28;20024;-75
2021/01/26 07:28:54;;;;;;;15.52;7.25;;;3.60;99.90;;;;;;5063271;28;20020;-77
2021/01/26 07:31:32;;;;;;;11.80;6.25;;;3.70;99.90;;;;;;5060119;28;20099;-75
2021/01/26 07:34:03;;;;;;;11.00;6.03;;;3.80;99.90;;;;;;5071249;28;20029;-75
2021/01/26 07:36:31;;;;;;;10.07;6.43;;;3.90;99.90;;;;;;5062634;28;20051;-75
2021/01/26 07:39:38;;;;;;;12.05;6.88;;;4.00;99.90;;;;;;5071364;28;20013;-75
2021/01/26 07:42:27;;;;;;;10.43;6.85;;;4.20;99.90;;;;;;5059452;28;20498;-78
2021/01/26 07:45:28;;;;;;;9.40;7.95;;;4.50;99.90;;;;;;5060916;28;20059;-75
2021/01/26 07:48:06;;;;;;;8.35;7.22;;;4.70;99.90;;;;;;5058517;28;20042;-76
2021/01/26 07:50:44;;;;;;;10.52;7.75;;;4.70;99.90;;;;;;5065509;28;20027;-75
2021/01/26 07:53:34;;;;;;;10.48;8.43;;;4.80;99.90;;;;;;5065189;28;20025;-75
2021/01/26 07:56:14;;;;;;;9.02;7.53;;;4.80;99.90;;;;;;5063727;28;20474;-74
2021/01/26 07:58:46;;;;;;;8.38;5.93;;;4.90;99.90;;;;;;5064192;28;20100;-75
2021/01/26 08:01:16;;;;;;;10.27;7.13;;;4.90;99.90;;;;;;5065653;28;20021;-75
2021/01/26 08:03:43;;;;;;;7.25;5.28;;;5.10;99.90;;;;;;5065014;28;20483;-76
2021/01/26 08:06:35;;;;;;;12.60;5.88;;;5.30;99.90;;;;;;5063728;28;20109;-75
2021/01/26 08:09:02;;;;;;;9.93;6.63;;;5.30;99.90;;;;;;5063937;28;20035;-76
2021/01/26 08:11:30;;;;;;;8.98;5.47;;;5.40;99.90;;;;;;5060465;28;20033;-75
2021/01/26 08:14:08;;;;;;;8.63;5.35;;;5.50;99.90;;;;;;5062569;28;20054;-75
2021/01/26 08:16:35;;;;;;;11.48;5.20;;;5.50;99.90;;;;;;5066171;28;20021;-75
2021/01/26 08:19:05;;;;;;;7.78;5.30;;;5.60;99.90;;;;;;5062399;28;20561;-76
2021/01/26 08:21:38;;;;;;;7.47;5.13;;;5.60;99.90;;;;;;5055728;28;20025;-75
2021/01/26 08:24:16;;;;;;;8.43;6.55;;;5.70;99.90;;;;;;5062330;28;20494;-75
2021/01/26 08:26:43;;;;;;;9.00;6.03;;;5.80;99.90;;;;;;5057017;28;20032;-75
2021/01/26 08:29:09;;;;;;;8.77;6.35;;;5.90;99.90;;;;;;5066063;28;20029;-75
2021/01/26 08:31:40;;;;;;;8.02;5.88;;;6.00;99.90;;;;;;5067653;28;20029;-75
2021/01/26 08:34:21;;;;;;;11.10;6.13;;;6.20;99.90;;;;;;5058128;28;20025;-76
2021/01/26 08:37:08;;;;;;;11.90;6.72;;;6.20;99.90;;;;;;5060576;28;20029;-77
2021/01/26 08:39:44;;;;;;;8.00;6.80;;;6.30;99.90;;;;;;5057662;28;20037;-76
2021/01/26 08:42:11;;;;;;;10.90;6.30;;;6.40;99.90;;;;;;5065170;28;20028;-75
2021/01/26 08:44:37;;;;;;;10.85;6.95;;;6.60;99.90;;;;;;5057728;28;20017;-75
2021/01/26 08:47:51;;;;;;;8.27;6.18;;;6.70;99.90;;;;;;5061428;28;20047;-75
2021/01/26 08:50:22;;;;;;;9.20;7.25;;;6.60;99.90;;;;;;5066074;28;20024;-76
2021/01/26 08:52:49;;;;;;;8.43;6.43;;;6.60;99.90;;;;;;5064198;28;20052;-76
2021/01/26 08:55:45;;;;;;;7.07;6.22;;;6.70;99.90;;;;;;5067054;28;20020;-75
2021/01/26 08:58:33;;;;;;;7.95;6.13;;;6.80;99.90;;;;;;5058717;28;20050;-76
2021/01/26 09:00:59;;;;;;;14.05;7.00;;;6.80;99.90;;;;;;5061454;28;20060;-75
2021/01/26 09:03:30;;;;;;;8.00;6.25;;;6.90;99.90;;;;;;5060155;28;20174;-75
2021/01/26 09:06:04;;;;;;;11.77;7.35;;;6.90;99.90;;;;;;5060797;28;20031;-75
2021/01/26 09:08:42;;;;;;;11.10;7.22;;;7.00;99.90;;;;;;5061567;28;20079;-75
2021/01/26 09:11:13;;;;;;;10.82;7.65;;;6.90;99.90;;;;;;5061620;28;20034;-76
2021/01/26 09:13:39;;;;;;;11.60;6.57;;;7.10;99.90;;;;;;5064521;28;20020;-76
2021/01/26 09:16:20;;;;;;;11.52;8.32;;;7.30;99.90;;;;;;5060340;28;20495;-76
2021/01/26 09:18:57;;;;;;;10.98;7.25;;;7.30;99.90;;;;;;5063734;28;20032;-76
2021/01/26 09:21:23;;;;;;;9.65;6.53;;;7.40;99.90;;;;;;5052219;28;20032;-75
2021/01/26 09:23:53;;;;;;;10.40;6.40;;;7.40;99.90;;;;;;5061231;28;20039;-78
2021/01/26 09:26:20;;;;;;;14.85;6.97;;;7.50;99.90;;;;;;5071312;28;20042;-76
2021/01/26 09:28:49;;;;;;;7.30;5.47;;;7.50;99.90;;;;;;5062497;28;20521;-75
2021/01/26 09:31:21;;;;;;;9.43;5.55;;;7.50;99.90;;;;;;5058294;28;20481;-76
2021/01/26 09:33:47;;;;;;;8.93;6.82;;;7.50;99.90;;;;;;5067362;28;20055;-76
2021/01/26 09:36:19;;;;;;;11.50;7.53;;;7.80;99.90;;;;;;5067444;28;20442;-76
2021/01/26 09:38:48;;;;;;;8.87;6.13;;;7.80;99.90;;;;;;5067892;28;20031;-75
2021/01/26 09:41:21;;;;;;;12.25;6.55;;;7.90;99.90;;;;;;5064693;28;20539;-75
2021/01/26 09:43:49;;;;;;;10.02;7.20;;;7.90;99.90;;;;;;5064279;28;20466;-75
2021/01/26 09:46:23;;;;;;;18.38;8.55;;;7.80;99.90;;;;;;5057360;28;20017;-77
2021/01/26 09:48:52;;;;;;;14.98;8.68;;;7.70;99.90;;;;;;5063274;28;20056;-74
2021/01/26 09:51:28;;;;;;;17.15;8.77;;;7.60;99.90;;;;;;5075132;28;20035;-74
2021/01/26 09:54:03;;;;;;;11.00;6.32;;;7.40;99.90;;;;;;5067009;28;20021;-74
2021/01/26 09:56:31;;;;;;;11.05;7.68;;;7.50;99.90;;;;;;5080235;28;20016;-73
2021/01/26 09:58:58;;;;;;;14.48;7.57;;;7.50;99.90;;;;;;5074522;28;20028;-73
2021/01/26 10:01:25;;;;;;;10.57;6.57;;;7.40;99.90;;;;;;5072640;28;20020;-74
2021/01/26 10:04:00;;;;;;;15.93;8.98;;;7.50;99.90;;;;;;5075907;28;20025;-73
2021/01/26 10:06:27;;;;;;;20.02;11.00;;;7.70;99.90;;;;;;5079381;28;20036;-75
2021/01/26 10:08:53;;;;;;;10.63;6.32;;;7.70;99.90;;;;;;5060785;28;20093;-74
2021/01/26 10:11:29;;;;;;;18.58;7.45;;;7.70;99.90;;;;;;5074067;28;20055;-75
2021/01/26 10:14:22;;;;;;;21.83;9.20;;;7.80;99.90;;;;;;5072322;28;20052;-74
2021/01/26 10:16:55;;;;;;;9.80;6.65;;;7.80;99.90;;;;;;5074553;28;20036;-74
2021/01/26 10:19:30;;;;;;;8.20;5.88;;;7.80;99.90;;;;;;5062102;28;20032;-74
2021/01/26 10:22:18;;;;;;;10.82;5.97;;;7.80;99.90;;;;;;5076034;28;20120;-73
2021/01/26 10:24:44;;;;;;;14.32;6.10;;;7.80;99.90;;;;;;5061030;28;20487;-74
2021/01/26 10:27:13;;;;;;;8.15;6.97;;;7.90;99.90;;;;;;5078382;28;20075;-74
2021/01/26 10:29:42;;;;;;;12.98;8.65;;;7.90;99.90;;;;;;5070808;28;20048;-75
2021/01/26 10:32:10;;;;;;;13.18;10.70;;;7.90;99.90;;;;;;5064247;28;20057;-75
2021/01/26 10:34:39;;;;;;;14.73;8.77;;;8.10;99.90;;;;;;5073066;28;20106;-73
2021/01/26 10:37:16;;;;;;;16.20;9.10;;;8.10;99.90;;;;;;5077185;28;20029;-75
2021/01/26 10:39:44;;;;;;;11.90;8.95;;;8.20;99.90;;;;;;5062340;28;20061;-74
2021/01/26 10:42:20;;;;;;;12.98;7.68;;;8.40;99.90;;;;;;5080499;28;20039;-74
2021/01/26 10:44:54;;;;;;;8.48;6.50;;;8.50;99.90;;;;;;5065310;28;20021;-73
2021/01/26 10:47:30;;;;;;;6.60;5.32;;;8.50;99.90;;;;;;5074768;28;20017;-74
2021/01/26 10:50:10;;;;;;;11.23;5.75;;;8.50;99.90;;;;;;5067630;28;20033;-74
2021/01/26 10:52:48;;;;;;;14.95;6.65;;;8.50;99.90;;;;;;5081522;28;20080;-76
2021/01/26 10:55:17;;;;;;;12.05;6.82;;;8.40;99.90;;;;;;5075120;28;20029;-74
2021/01/26 10:57:44;;;;;;;17.17;7.53;;;8.50;99.90;;;;;;5075709;28;20029;-73
2021/01/26 11:00:12;;;;;;;6.35;5.25;;;8.50;99.90;;;;;;5084333;28;20087;-74
2021/01/26 11:02:38;;;;;;;11.93;6.20;;;8.50;99.90;;;;;;5067374;28;20057;-75
2021/01/26 11:05:06;;;;;;;6.60;3.97;;;8.50;99.90;;;;;;5068281;28;20021;-75
2021/01/26 11:07:32;;;;;;;7.30;4.65;;;8.50;99.90;;;;;;5073614;28;20024;-75
2021/01/26 11:09:58;;;;;;;5.53;4.20;;;8.50;99.90;;;;;;5072361;28;20463;-76
2021/01/26 11:12:24;;;;;;;6.03;4.97;;;8.40;99.90;;;;;;5069266;28;20073;-75
2021/01/26 11:14:51;;;;;;;7.78;6.40;;;8.40;99.90;;;;;;5065636;28;20024;-74
2021/01/26 11:17:17;;;;;;;10.65;4.97;;;8.30;99.90;;;;;;5074015;28;20090;-75
2021/01/26 11:19:47;;;;;;;6.75;4.85;;;8.30;99.90;;;;;;5069318;28;20033;-75
2021/01/26 11:22:14;;;;;;;9.70;5.55;;;8.20;99.90;;;;;;5072600;28;20025;-74
2021/01/26 11:24:41;;;;;;;10.18;5.57;;;8.30;99.90;;;;;;5076331;28;20029;-74
2021/01/26 11:27:08;;;;;;;7.65;5.55;;;8.30;99.90;;;;;;5075218;28;20021;-74
2021/01/26 11:29:34;;;;;;;11.32;5.18;;;8.30;99.90;;;;;;5082136;28;20032;-74
2021/01/26 11:32:00;;;;;;;5.95;4.70;;;8.30;99.90;;;;;;5073625;28;20021;-75
2021/01/26 11:34:25;;;;;;;4.18;3.78;;;8.30;99.90;;;;;;5078139;28;20036;-75
2021/01/26 11:36:51;;;;;;;8.70;5.22;;;8.30;99.90;;;;;;5069328;28;20094;-75
2021/01/26 11:39:17;;;;;;;13.80;6.20;;;8.20;99.90;;;;;;5069331;28;20047;-76
2021/01/26 11:41:43;;;;;;;9.10;5.32;;;8.20;99.90;;;;;;5070027;28;20479;-76
2021/01/26 11:44:09;;;;;;;10.68;7.15;;;8.30;99.90;;;;;;5074039;28;20016;-73
2021/01/26 11:46:35;;;;;;;9.25;7.13;;;8.20;99.90;;;;;;5069121;28;20025;-76
2021/01/26 11:49:01;;;;;;;7.60;5.05;;;8.20;99.90;;;;;;5069445;28;20475;-74
2021/01/26 11:51:27;;;;;;;11.23;7.40;;;8.20;99.90;;;;;;5066500;28;20036;-74
2021/01/26 11:53:53;;;;;;;8.88;7.80;;;8.10;99.90;;;;;;5077621;28;20024;-76
2021/01/26 11:56:21;;;;;;;9.15;7.05;;;8.30;99.90;;;;;;5079610;28;20028;-75
2021/01/26 11:58:48;;;;;;;9.07;7.07;;;8.30;99.90;;;;;;5080184;28;20056;-75
2021/01/26 12:01:14;;;;;;;7.03;6.20;;;8.40;99.90;;;;;;5083330;28;20017;-75
2021/01/26 12:03:40;;;;;;;11.95;7.03;;;8.50;99.90;;;;;;5082296;28;20025;-75
2021/01/26 12:06:05;;;;;;;9.63;7.03;;;8.50;99.90;;;;;;5084289;28;20032;-75
2021/01/26 12:08:31;;;;;;;9.63;6.30;;;8.50;99.90;;;;;;5081129;28;20036;-76
2021/01/26 12:10:57;;;;;;;10.93;6.88;;;8.50;99.90;;;;;;5087918;28;20024;-74
2021/01/26 12:13:23;;;;;;;8.20;5.82;;;8.60;99.90;;;;;;5074834;28;20027;-74
2021/01/26 12:15:50;;;;;;;8.43;5.85;;;8.60;99.90;;;;;;5067433;28;20027;-73
2021/01/26 12:18:16;;;;;;;8.57;6.15;;;8.50;99.90;;;;;;5073365;28;20033;-75
2021/01/26 12:20:42;;;;;;;9.32;7.45;;;8.50;99.90;;;;;;5080837;28;20052;-75
2021/01/26 12:23:08;;;;;;;14.60;7.85;;;8.50;99.90;;;;;;5079652;28;20035;-74
2021/01/26 12:25:35;;;;;;;11.45;6.45;;;8.40;99.90;;;;;;5075819;28;20154;-75
2021/01/26 12:28:02;;;;;;;10.30;7.03;;;8.30;99.90;;;;;;5073752;28;20051;-76
2021/01/26 12:30:29;;;;;;;8.63;6.63;;;8.30;99.90;;;;;;5074687;28;20025;-76
2021/01/26 12:32:55;;;;;;;12.85;10.00;;;8.30;99.90;;;;;;5082002;28;20028;-76
2021/01/26 12:35:28;;;;;;;8.88;6.35;;;8.20;99.90;;;;;;5081757;28;20039;-76
2021/01/26 12:37:54;;;;;;;10.35;6.63;;;8.20;99.90;;;;;;5080599;28;20012;-75
2021/01/26 12:40:20;;;;;;;17.02;10.02;;;8.30;99.90;;;;;;5089194;28;20029;-75
2021/01/26 12:42:47;;;;;;;13.35;9.50;;;8.30;99.90;;;;;;5087857;28;20025;-75
2021/01/26 12:45:15;;;;;;;15.75;9.85;;;8.30;99.90;;;;;;5078528;28;20391;-75
2021/01/26 12:47:42;;;;;;;9.30;7.57;;;8.40;99.90;;;;;;5084612;28;20059;-75
2021/01/26 12:50:10;;;;;;;15.00;9.05;;;8.40;99.90;;;;;;5074671;28;20028;-75
2021/01/26 12:52:36;;;;;;;14.68;8.48;;;8.40;99.90;;;;;;5077490;28;20043;-75
2021/01/26 12:55:03;;;;;;;11.50;9.13;;;8.50;99.90;;;;;;5082644;28;20034;-78
2021/01/26 12:57:28;;;;;;;10.38;7.97;;;8.40;99.90;;;;;;5064391;28;20036;-75
2021/01/26 12:59:54;;;;;;;7.88;6.60;;;8.40;99.90;;;;;;5071776;28;20017;-75
2021/01/26 13:02:21;;;;;;;9.38;7.40;;;8.30;99.90;;;;;;5066928;28;20619;-75
2021/01/26 13:04:47;;;;;;;6.53;5.03;;;8.40;99.90;;;;;;5070042;28;20033;-75
2021/01/26 13:07:13;;;;;;;7.68;5.30;;;8.30;99.90;;;;;;5067048;28;20098;-75
2021/01/26 13:09:39;;;;;;;8.27;5.68;;;8.30;99.90;;;;;;5066240;28;20036;-75
2021/01/26 13:12:06;;;;;;;7.88;5.65;;;8.20;99.90;;;;;;5068460;28;20055;-78
2021/01/26 13:14:31;;;;;;;6.28;5.68;;;8.20;99.90;;;;;;5073680;28;20017;-75
2021/01/26 13:16:57;;;;;;;9.13;5.65;;;8.30;99.90;;;;;;5067079;28;20100;-74
2021/01/26 13:19:23;;;;;;;6.85;6.15;;;8.30;99.90;;;;;;5060337;28;20363;-74
2021/01/26 13:21:51;;;;;;;9.80;5.53;;;8.20;99.90;;;;;;5065768;28;20214;-74
2021/01/26 13:24:18;;;;;;;9.13;5.70;;;8.30;99.90;;;;;;5071761;28;20528;-75
2021/01/26 13:26:44;;;;;;;7.22;6.15;;;8.30;99.90;;;;;;5067427;28;20040;-75
2021/01/26 13:29:10;;;;;;;6.55;5.50;;;8.40;99.90;;;;;;5072651;28;20020;-74